Aviation Digital Data Service (ADDS)

Output produced by METARs form (0842 UTC 03 August 2021)
found at http://www.aviationweather.gov/metar/data/
 
KLNS 030753Z AUTO 00000KT 10SM CLR 14/12 A3011 RMK AO2 SLP194 T01440122
KLNS 030653Z AUTO 00000KT 10SM CLR 14/12 A3011 RMK AO2 SLP195 T01440122
KLNS 030553Z AUTO 00000KT 10SM CLR 15/13 A3011 RMK AO2 SLP193 T01500128 10239 20150 50005
KLNS 030453Z AUTO 00000KT 10SM CLR 17/13 A3011 RMK AO2 SLP195 T01670128 402720144
KLNS 030353Z AUTO 16003KT 10SM CLR 17/13 A3011 RMK AO2 SLP194 T01670133
KLNS 030253Z 00000KT 10SM CLR 19/13 A3009 RMK AO2 SLP188 T01940128 51013
KLNS 030153Z 00000KT 10SM CLR 21/13 A3008 RMK AO2 SLP185 T02060128
KLNS 030053Z 32004KT 10SM CLR 22/13 A3007 RMK AO2 SLP179 T02170128
KLNS 022353Z 01003KT 10SM FEW050 24/12 A3005 RMK AO2 SLP175 T02390122 10272 20239 53007
KLNS 022253Z 32007KT 10SM FEW060 26/12 A3004 RMK AO2 SLP169 T02560122
KLNS 022153Z 32008KT 10SM FEW060 27/12 A3003 RMK AO2 SLP168 T02670117
KLNS 022053Z 31007KT 10SM SCT050 26/12 A3003 RMK AO2 SLP167 T02560117 56003
KLNS 021953Z 30007KT 10SM SCT055 26/13 A3003 RMK AO2 SLP168 T02610128
KLNS 021853Z 30011KT 10SM BKN049 26/13 A3004 RMK AO2 SLP169 T02560128
KLNS 021753Z 32008KT 10SM SCT049 24/13 A3004 RMK AO2 SLP170 T02440133 10244 20178 58001
KLNS 021653Z 35008KT 10SM FEW039 SCT048 24/13 A3004 RMK AO2 SLP170 T02390133
KLNS 021553Z 34010KT 10SM FEW030 FEW036 BKN046 22/13 A3005 RMK AO2 SLP173 T02170133
KLNS 021500Z 34011KT 10SM SCT033 22/14 A3004 RMK AO2 T02170144
KLNS 021453Z 33009KT 10SM BKN023 22/14 A3004 RMK AO2 SLP171 T02170139 51015
KLNS 021353Z 36007G15KT 10SM BKN023 21/14 A3002 RMK AO2 SLP166 T02060139
KLNS 021342Z 35009G16KT 10SM BKN023 19/14 A3002 RMK AO2 T01940139
KLNS 021253Z 31011KT 10SM CLR 19/14 A3002 RMK AO2 SLP163 T01940144
KLNS 021153Z 28004KT 8SM CLR 18/15 A3000 RMK AO2 SLP155 70105 T01780150 10178 20144 53021
KLNS 021053Z 26003KT 5SM BR CLR 16/14 A2997 RMK AO2 SLP148 T01560139
KLNS 020953Z 29005KT 4SM BR CLR 14/13 A2996 RMK AO2 SLP143 T01440128
KLNS 020853Z AUTO 27006KT 4SM BR CLR 15/13 A2994 RMK AO2 SLP135 T01500133 53010
KLNS 020753Z AUTO 30004KT 9SM CLR 16/14 A2992 RMK AO2 SLP129 T01560139
KLNS 020653Z AUTO 29005KT 6SM BR CLR 16/14 A2990 RMK AO2 SLP124 T01560139
KLNS 020553Z AUTO 30006KT 4SM BR CLR 16/14 A2990 RMK AO2 SLP125 60092 T01610144 10217 20156 58003
KLNS 020543Z AUTO 29006KT 4SM BR SCT002 16/14 A2991 RMK AO2 T01610144
KLNS 020518Z AUTO 29006KT 5SM BR BKN003 16/15 A2991 RMK AO2 T01610150
KLNS 020502Z AUTO 28006KT 7SM SCT003 16/15 A2991 RMK AO2 T01610150
KLNS 020453Z AUTO 28006KT 7SM BKN003 17/15 A2991 RMK AO2 SLP126 T01670150 402280156
KLNS 020414Z AUTO 30006KT 7SM OVC004 17/16 A2991 RMK AO2 T01720156
KLNS 020403Z AUTO 29005KT 7SM BKN005 BKN110 17/16 A2991 RMK AO2 T01720156
KLNS 020353Z AUTO 29004KT 6SM BR SCT005 BKN100 17/15 A2992 RMK AO2 SLP129 T01670150
KLNS 020337Z AUTO 31003KT 7SM FEW009 FEW013 SCT100 17/15 A2991 RMK AO2 T01670150
KLNS 020325Z AUTO 28003KT 10SM SCT009 BKN013 BKN095 17/15 A2991 RMK AO2 T01720150
KLNS 020253Z 26003KT 10SM BKN009 OVC095 17/15 A2991 RMK AO2 SLP127 60092 T01670150 51011
KLNS 020250Z 00000KT 10SM BKN008 OVC100 17/15 A2991 RMK AO2
KLNS 020234Z 29004KT 10SM SCT008 OVC100 17/15 A2991 RMK AO2 T01670150
KLNS 020153Z 00000KT 10SM BKN095 17/15 A2989 RMK AO2 RAE13 SLP120 P0002 T01720150
KLNS 020102Z 10008KT 7SM -RA SCT070 BKN090 OVC110 17/16 A2987 RMK AO2 LTG DSNT E AND SE P0002 T01720156
KLNS 020053Z 10009KT 5SM VCTS RA BR BKN065 OVC090 17/16 A2988 RMK AO2 PK WND 32041/0001 LTG DSNT SE RAB02 SLP116 OHD TS MOV SE P0090 T01720156
KLNS 020038Z 07006KT 5SM VCTS -RA BR SCT049 BKN070 OVC090 17/16 A2989 RMK AO2 PK WND 32041/0001 LTG DSNT SW RAB02 OHD TS MOV SE P0087 T01720156
KLNS 020018Z 34006KT 3SM +RA BR FEW013 BKN039 OVC075 16/14 A2990 RMK AO2 PK WND 32041/0001 LTG DSNT SW RAB02 OHD TS MOV SE P0066 T01610139
KLNS 020014Z 32007G16KT 1 1/4SM +RA BR FEW013 BKN034 OVC080 16/14 A2990 RMK AO2 PK WND 32041/0001 LTG DSNT NE RAB02 OHD TS MOV SE P0054 T01610139
KLNS 020004Z 34012G41KT 3/4SM VCTS RA FEW008 SCT013 BKN026 17/14 A2990 RMK AO2 PK WND 32041/0001 LTG DSNT NE AND SW AND W RAB02 PRESRR OHD TS MOV SE P0016 T01720144
KLNS 020002Z 34029G41KT 2SM VCTS RA SCT013 BKN023 BKN030 19/16 A2991 RMK AO2 PK WND 32041/0001 LTG DSNT NE AND SW AND W RAB02 PRESRR OHD TS MOV SE P0007 T01940161
KLNS 012353Z 03006KT 10SM FEW021 BKN080 22/19 A2986 RMK AO2 LTG DSNT NE AND W PRESRR SLP109 60004 T02170189 10228 20206 53006
KLNS 012342Z 07003KT 9SM SCT021 22/19 A2985 RMK AO2 LTG DSNT W-N T02170189
KLNS 012253Z 11003KT 10SM OVC017 23/19 A2983 RMK AO2 SLP100 T02280189
KLNS 012153Z 17003KT 10SM OVC016 23/19 A2983 RMK AO2 SLP098 T02280189
KLNS 012053Z 07005KT 8SM BKN010 OVC016 22/19 A2984 RMK AO2 LTG DSNT N CIG 007V013 SLP103 60004 T02170189 58009
KLNS 030524Z 0306/0406 00000KT P6SM FEW250 
     FM031700 12004KT P6SM OVC250